Time;durP1;ratioP1;P1;durP2;ratioP2;P2;SDS_P1;SDS_P2;PMS_P1;PMS_P2;Temp;Humidity;BMP_temperature;BMP_pressure;BME280_temperature;BME280_humidity;BME280_pressure;Samples;Min_cycle;Max_cycle;Signal;HPM_P1;HPM_P2
2020/12/29 00:00:50;;;;;;;42.08;34.75;;;0.90;91.80;;;;;;5090424;28;20039;-76
2020/12/29 00:03:16;;;;;;;47.50;37.13;;;0.80;91.50;;;;;;5081363;28;20342;-76
2020/12/29 00:05:42;;;;;;;42.58;33.25;;;0.80;91.30;;;;;;5089050;28;20034;-75
2020/12/29 00:08:08;;;;;;;40.03;32.53;;;0.70;91.30;;;;;;5093853;28;20028;-75
2020/12/29 00:10:33;;;;;;;44.85;35.17;;;0.70;91.40;;;;;;5093501;28;20054;-75
2020/12/29 00:13:00;;;;;;;44.22;35.38;;;0.70;91.40;;;;;;5089176;28;20036;-75
2020/12/29 00:15:25;;;;;;;44.17;35.13;;;0.70;91.40;;;;;;5094861;28;20032;-75
2020/12/29 00:17:51;;;;;;;55.22;41.67;;;0.60;91.50;;;;;;5082679;28;20035;-74
2020/12/29 00:20:17;;;;;;;53.38;40.65;;;0.60;91.40;;;;;;5098126;28;20449;-78
2020/12/29 00:22:42;;;;;;;53.85;41.95;;;0.60;91.50;;;;;;5094745;28;20051;-74
2020/12/29 00:25:08;;;;;;;57.28;42.17;;;0.60;91.70;;;;;;5102217;28;20028;-75
2020/12/29 00:27:35;;;;;;;51.17;38.70;;;0.70;91.70;;;;;;5100971;28;20523;-77
2020/12/29 00:30:00;;;;;;;52.22;39.72;;;0.80;91.80;;;;;;5098201;28;20046;-74
2020/12/29 00:32:26;;;;;;;57.40;43.58;;;0.80;91.80;;;;;;5096967;28;20052;-74
2020/12/29 00:34:52;;;;;;;52.55;39.90;;;0.90;91.80;;;;;;5096566;28;20058;-75
2020/12/29 00:37:17;;;;;;;52.22;40.00;;;0.90;91.70;;;;;;5098023;28;20347;-74
2020/12/29 00:39:43;;;;;;;48.38;39.33;;;0.90;91.70;;;;;;5096052;28;20455;-74
2020/12/29 00:42:10;;;;;;;45.30;37.20;;;0.90;91.70;;;;;;5098399;28;20035;-74
2020/12/29 00:44:36;;;;;;;44.42;35.75;;;1.00;91.80;;;;;;5099665;28;20369;-73
2020/12/29 00:47:01;;;;;;;42.95;35.25;;;1.10;91.80;;;;;;5095502;28;20036;-75
2020/12/29 00:49:27;;;;;;;44.13;36.08;;;1.20;91.80;;;;;;5098629;28;20039;-74
2020/12/29 00:51:53;;;;;;;41.85;34.65;;;1.20;91.70;;;;;;5093917;28;20035;-74
2020/12/29 00:54:20;;;;;;;41.67;35.35;;;1.30;91.70;;;;;;5095355;28;20032;-74
2020/12/29 00:56:45;;;;;;;41.75;34.72;;;1.40;91.70;;;;;;5095627;28;20107;-74
2020/12/29 00:59:11;;;;;;;40.05;33.17;;;1.40;91.50;;;;;;5093215;28;20111;-73
2020/12/29 01:01:37;;;;;;;39.45;32.95;;;1.50;91.50;;;;;;5097881;28;20366;-74
2020/12/29 01:04:03;;;;;;;36.92;30.80;;;1.40;91.40;;;;;;5095643;28;20031;-75
2020/12/29 01:06:29;;;;;;;42.25;33.88;;;1.50;91.40;;;;;;5094330;28;20046;-78
2020/12/29 01:08:55;;;;;;;40.30;32.33;;;1.50;91.50;;;;;;5097756;28;20378;-75
2020/12/29 01:11:21;;;;;;;38.92;32.45;;;1.60;91.40;;;;;;5096842;28;20038;-72
2020/12/29 01:13:46;;;;;;;37.58;29.92;;;1.60;91.40;;;;;;5094193;28;20480;-75
2020/12/29 01:16:12;;;;;;;36.95;29.90;;;1.60;91.30;;;;;;5095111;28;20020;-75
2020/12/29 01:18:39;;;;;;;36.45;29.10;;;1.60;91.20;;;;;;5095543;28;20436;-79
2020/12/29 01:21:07;;;;;;;38.35;30.52;;;1.60;91.10;;;;;;5091003;28;20044;-75
2020/12/29 01:23:33;;;;;;;36.85;29.73;;;1.60;91.10;;;;;;5073887;28;20410;-75
2020/12/29 01:25:59;;;;;;;36.72;28.23;;;1.60;91.10;;;;;;5093443;28;20112;-74
2020/12/29 01:28:24;;;;;;;39.63;30.08;;;1.60;91.20;;;;;;5096574;28;20032;-74
2020/12/29 01:30:50;;;;;;;38.30;30.30;;;1.70;91.20;;;;;;5102559;28;20076;-74
2020/12/29 01:33:16;;;;;;;36.90;28.33;;;1.70;91.30;;;;;;5100162;28;20385;-73
2020/12/29 01:35:41;;;;;;;39.85;29.83;;;1.70;91.30;;;;;;5097526;28;20063;-76
2020/12/29 01:38:07;;;;;;;36.70;28.13;;;1.80;91.40;;;;;;5097350;28;20465;-74
2020/12/29 01:40:34;;;;;;;39.10;29.77;;;1.80;91.40;;;;;;5091440;28;20036;-75
2020/12/29 01:43:00;;;;;;;37.53;28.05;;;1.80;91.40;;;;;;5097222;28;20042;-73
2020/12/29 01:45:26;;;;;;;36.05;28.60;;;1.90;91.50;;;;;;5078912;28;20040;-75
2020/12/29 01:47:52;;;;;;;36.15;28.88;;;1.90;91.40;;;;;;5079058;28;20446;-73
2020/12/29 01:50:23;;;;;;;35.58;28.35;;;1.90;91.40;;;;;;5092102;28;20036;-73
2020/12/29 01:52:59;;;;;;;36.33;28.38;;;2.00;91.50;;;;;;5091864;28;20032;-73
2020/12/29 01:55:26;;;;;;;36.95;28.15;;;2.00;91.50;;;;;;5069952;28;20092;-74
2020/12/29 01:57:52;;;;;;;38.75;30.10;;;2.00;91.50;;;;;;5098234;28;20047;-76
2020/12/29 02:00:18;;;;;;;34.45;28.23;;;2.10;91.50;;;;;;5096817;28;20024;-76
2020/12/29 02:02:45;;;;;;;34.53;27.48;;;2.10;91.50;;;;;;5091556;28;20100;-73
2020/12/29 02:05:10;;;;;;;36.65;28.42;;;2.10;91.50;;;;;;5096898;28;20038;-74
2020/12/29 02:07:37;;;;;;;38.33;28.23;;;2.10;91.40;;;;;;5093197;28;20024;-74
2020/12/29 02:10:04;;;;;;;35.45;28.25;;;2.10;91.30;;;;;;5077755;28;20035;-74
2020/12/29 02:12:37;;;;;;;35.58;28.30;;;2.10;91.30;;;;;;5092211;28;20047;-74
2020/12/29 02:15:07;;;;;;;35.85;28.67;;;2.10;91.30;;;;;;5098650;28;20377;-74
2020/12/29 02:17:33;;;;;;;38.90;30.02;;;2.10;91.20;;;;;;5084733;28;20411;-75
2020/12/29 02:19:59;;;;;;;35.78;29.48;;;2.10;91.30;;;;;;5074804;28;20059;-74
2020/12/29 02:22:27;;;;;;;37.95;30.15;;;2.20;91.40;;;;;;5092645;28;20463;-74
2020/12/29 02:24:58;;;;;;;37.97;28.95;;;2.20;91.40;;;;;;5097874;28;20024;-74
2020/12/29 02:27:26;;;;;;;36.38;29.35;;;2.20;91.50;;;;;;5092133;28;20039;-74
2020/12/29 02:29:52;;;;;;;34.92;28.00;;;2.20;91.50;;;;;;5072548;28;20470;-74
2020/12/29 02:32:19;;;;;;;37.00;31.02;;;2.20;91.50;;;;;;5081777;28;20504;-74
2020/12/29 02:34:45;;;;;;;38.75;30.88;;;2.30;91.50;;;;;;5098184;28;20024;-73
2020/12/29 02:37:11;;;;;;;33.25;27.83;;;2.20;91.50;;;;;;5092437;28;20040;-74
2020/12/29 02:39:43;;;;;;;37.92;30.30;;;2.30;91.60;;;;;;5094966;28;20047;-73
2020/12/29 02:42:10;;;;;;;36.33;27.95;;;2.30;91.60;;;;;;5081191;28;20031;-74
2020/12/29 02:44:37;;;;;;;40.90;29.95;;;2.30;91.60;;;;;;5071692;28;20093;-74
2020/12/29 02:47:03;;;;;;;34.60;28.35;;;2.30;91.60;;;;;;5080669;28;20119;-76
2020/12/29 02:49:29;;;;;;;32.10;26.58;;;2.30;91.70;;;;;;5095679;28;20485;-74
2020/12/29 02:51:56;;;;;;;33.25;26.45;;;2.30;91.70;;;;;;5086608;28;20024;-73
2020/12/29 02:54:23;;;;;;;35.92;28.42;;;2.40;91.70;;;;;;5100648;28;20081;-74
2020/12/29 02:56:49;;;;;;;34.05;26.23;;;2.30;91.70;;;;;;5101315;28;20039;-73
2020/12/29 02:59:14;;;;;;;39.38;30.05;;;2.40;91.70;;;;;;5094358;28;20029;-76
2020/12/29 03:01:40;;;;;;;37.53;28.35;;;2.40;91.70;;;;;;5097531;28;20040;-74
2020/12/29 03:04:06;;;;;;;32.80;27.25;;;2.40;91.70;;;;;;5095309;28;20020;-79
2020/12/29 03:06:31;;;;;;;33.47;27.60;;;2.40;91.80;;;;;;5091032;28;20092;-75
2020/12/29 03:08:57;;;;;;;35.53;29.05;;;2.40;91.70;;;;;;5092732;28;20036;-74
2020/12/29 03:11:30;;;;;;;33.85;28.48;;;2.50;91.70;;;;;;5092529;28;20028;-76
2020/12/29 03:13:59;;;;;;;36.15;26.88;;;2.40;91.70;;;;;;5099017;28;20374;-74
2020/12/29 03:16:26;;;;;;;35.78;29.45;;;2.40;91.80;;;;;;5096565;28;20058;-74
2020/12/29 03:18:52;;;;;;;35.25;28.42;;;2.50;91.90;;;;;;5096847;28;20237;-74
2020/12/29 03:21:18;;;;;;;35.67;27.40;;;2.50;91.90;;;;;;5090931;28;20090;-77
2020/12/29 03:23:43;;;;;;;37.20;28.27;;;2.50;91.90;;;;;;5092568;28;20511;-74
2020/12/29 03:26:09;;;;;;;36.47;27.23;;;2.50;91.80;;;;;;5093049;28;20055;-75
2020/12/29 03:28:35;;;;;;;35.15;28.08;;;2.50;91.90;;;;;;5096119;28;20024;-74
2020/12/29 03:31:01;;;;;;;33.22;27.15;;;2.60;92.00;;;;;;5088529;28;20052;-74
2020/12/29 03:33:27;;;;;;;35.00;27.52;;;2.60;91.90;;;;;;5099311;28;21497;-73
2020/12/29 03:35:53;;;;;;;33.63;27.67;;;2.60;92.00;;;;;;5095626;28;20028;-73
2020/12/29 03:38:20;;;;;;;38.25;28.63;;;2.60;92.00;;;;;;5089430;28;20152;-74
2020/12/29 03:40:46;;;;;;;34.25;25.75;;;2.70;92.00;;;;;;5091269;28;20115;-74
2020/12/29 03:43:14;;;;;;;35.53;26.38;;;2.70;92.00;;;;;;5087950;28;20505;-73
2020/12/29 03:45:43;;;;;;;32.58;25.65;;;2.70;91.90;;;;;;5092557;28;20035;-74
2020/12/29 03:48:14;;;;;;;33.72;25.25;;;2.80;92.00;;;;;;5092407;28;20026;-74
2020/12/29 03:50:41;;;;;;;33.47;25.70;;;2.80;92.10;;;;;;5090955;28;20338;-74
2020/12/29 03:53:07;;;;;;;31.95;24.77;;;2.80;92.00;;;;;;5092319;28;20044;-73
2020/12/29 03:55:34;;;;;;;30.70;24.98;;;2.80;92.20;;;;;;5083799;28;20051;-74
2020/12/29 03:57:59;;;;;;;34.13;27.02;;;2.80;92.20;;;;;;5098909;28;20047;-73
2020/12/29 04:00:25;;;;;;;31.48;23.50;;;2.80;92.30;;;;;;5084206;28;20031;-74
2020/12/29 04:02:51;;;;;;;30.17;23.42;;;2.80;92.30;;;;;;5096539;28;20543;-77
2020/12/29 04:05:17;;;;;;;31.40;24.48;;;2.80;92.30;;;;;;5100014;28;20450;-74
2020/12/29 04:07:43;;;;;;;32.10;24.05;;;2.80;92.30;;;;;;5096090;28;20431;-73
2020/12/29 04:10:09;;;;;;;30.52;23.85;;;2.80;92.40;;;;;;5100664;28;20032;-74
2020/12/29 04:12:35;;;;;;;35.20;25.48;;;2.80;92.40;;;;;;5099527;28;20039;-73
2020/12/29 04:15:01;;;;;;;31.45;24.33;;;2.70;92.50;;;;;;5102686;28;20027;-74
2020/12/29 04:17:32;;;;;;;32.72;23.48;;;2.70;92.60;;;;;;5096335;28;20036;-76
2020/12/29 04:19:58;;;;;;;31.52;23.42;;;2.70;92.60;;;;;;5097810;28;20032;-74
2020/12/29 04:22:23;;;;;;;33.53;24.73;;;2.70;92.70;;;;;;5098992;28;20358;-74
2020/12/29 04:24:49;;;;;;;35.13;24.52;;;2.70;92.80;;;;;;5093660;28;20123;-74
2020/12/29 04:27:14;;;;;;;34.38;23.85;;;2.80;92.80;;;;;;5092307;28;20115;-75
2020/12/29 04:29:40;;;;;;;33.97;25.73;;;2.80;92.80;;;;;;5090690;28;20038;-73
2020/12/29 04:32:06;;;;;;;37.40;25.33;;;2.70;92.80;;;;;;5095454;28;20077;-75
2020/12/29 04:34:31;;;;;;;30.45;24.08;;;2.70;92.90;;;;;;5093768;28;20039;-75
2020/12/29 04:36:57;;;;;;;34.72;25.75;;;2.70;92.90;;;;;;5090639;28;20374;-75
2020/12/29 04:39:23;;;;;;;35.58;25.38;;;2.60;92.90;;;;;;5097209;28;20085;-74
2020/12/29 04:41:52;;;;;;;34.92;24.48;;;2.60;93.00;;;;;;5109536;28;20040;-75
2020/12/29 04:44:18;;;;;;;35.40;25.60;;;2.60;93.10;;;;;;5096714;28;20036;-75
2020/12/29 04:46:44;;;;;;;36.53;24.50;;;2.60;93.20;;;;;;5094174;28;20428;-75
2020/12/29 04:49:11;;;;;;;38.67;24.95;;;2.60;93.20;;;;;;5094513;28;20090;-75
2020/12/29 04:51:39;;;;;;;37.42;24.90;;;2.60;93.30;;;;;;5076203;28;20420;-74
2020/12/29 04:54:07;;;;;;;37.42;25.80;;;2.60;93.40;;;;;;5094242;28;20032;-74
2020/12/29 04:56:34;;;;;;;37.40;23.63;;;2.60;93.50;;;;;;5098458;28;20095;-73
2020/12/29 04:59:03;;;;;;;38.50;24.85;;;2.70;93.60;;;;;;5095743;28;20046;-74
2020/12/29 05:01:34;;;;;;;39.88;25.25;;;2.70;93.60;;;;;;5098629;28;20405;-74
2020/12/29 05:04:00;;;;;;;37.20;24.38;;;2.80;93.70;;;;;;5078632;28;20028;-75
2020/12/29 05:06:26;;;;;;;38.60;23.30;;;2.90;93.70;;;;;;5092130;28;20494;-73
2020/12/29 05:08:53;;;;;;;40.25;24.60;;;2.90;93.60;;;;;;5100359;28;20034;-74
2020/12/29 05:11:21;;;;;;;39.10;24.08;;;2.90;93.40;;;;;;5093062;28;20032;-73
2020/12/29 05:13:48;;;;;;;35.63;23.00;;;2.90;93.30;;;;;;5100714;28;20060;-75
2020/12/29 05:16:14;;;;;;;38.63;23.42;;;2.90;93.20;;;;;;5079685;28;20438;-74
2020/12/29 05:18:40;;;;;;;37.85;23.13;;;2.90;93.20;;;;;;5095713;28;20035;-74
2020/12/29 05:21:06;;;;;;;36.33;23.35;;;3.00;93.20;;;;;;5099437;28;20027;-74
2020/12/29 05:23:34;;;;;;;31.48;22.35;;;3.00;93.20;;;;;;5093959;28;20052;-76
2020/12/29 05:26:00;;;;;;;30.25;20.80;;;2.90;93.10;;;;;;5098675;28;20035;-74
2020/12/29 05:28:27;;;;;;;33.45;22.13;;;3.00;93.10;;;;;;5091665;28;20062;-74
2020/12/29 05:30:57;;;;;;;34.47;21.77;;;3.00;93.00;;;;;;5094004;28;20082;-74
2020/12/29 05:33:23;;;;;;;34.70;21.33;;;3.00;93.00;;;;;;5095430;28;20500;-73
2020/12/29 05:35:53;;;;;;;35.10;22.70;;;3.00;92.90;;;;;;5094186;28;20044;-73
2020/12/29 05:38:19;;;;;;;35.80;21.98;;;3.10;92.90;;;;;;5095436;28;20043;-76
2020/12/29 05:40:48;;;;;;;36.05;21.27;;;3.10;92.90;;;;;;5096128;28;20032;-73
2020/12/29 05:43:14;;;;;;;34.83;21.80;;;3.10;92.90;;;;;;5090196;28;20123;-73
2020/12/29 05:45:40;;;;;;;35.95;22.42;;;3.10;93.10;;;;;;5092740;28;20081;-73
2020/12/29 05:48:07;;;;;;;36.30;22.63;;;3.10;93.10;;;;;;5097441;28;20470;-74
2020/12/29 05:50:34;;;;;;;35.25;21.83;;;3.10;93.10;;;;;;5093679;28;20039;-73
2020/12/29 05:53:06;;;;;;;39.30;22.30;;;3.10;93.20;;;;;;5091731;28;20035;-74
2020/12/29 05:55:35;;;;;;;34.53;22.45;;;3.20;93.20;;;;;;5099251;28;20031;-73
2020/12/29 05:58:11;;;;;;;32.85;21.15;;;3.20;93.10;;;;;;5076954;28;20587;-73
2020/12/29 06:00:38;;;;;;;36.72;20.15;;;3.20;93.10;;;;;;5094126;28;20028;-74
2020/12/29 06:03:05;;;;;;;33.50;20.95;;;3.20;93.10;;;;;;5099267;28;20062;-74
2020/12/29 06:05:33;;;;;;;34.38;20.35;;;3.20;93.10;;;;;;5097071;28;20032;-74
2020/12/29 06:08:02;;;;;;;34.38;20.70;;;3.10;92.90;;;;;;5105390;28;20382;-74
2020/12/29 06:10:29;;;;;;;35.38;20.63;;;3.10;92.80;;;;;;5096196;28;20069;-74
2020/12/29 06:12:57;;;;;;;36.10;20.33;;;3.10;92.70;;;;;;5105258;28;20050;-73
2020/12/29 06:15:27;;;;;;;35.17;19.90;;;3.00;92.80;;;;;;5092185;28;21680;-74
2020/12/29 06:18:04;;;;;;;36.20;20.67;;;3.00;92.70;;;;;;5091211;28;20092;-75
2020/12/29 06:20:33;;;;;;;35.25;21.13;;;3.00;92.80;;;;;;5102580;28;20485;-73
2020/12/29 06:23:02;;;;;;;32.17;18.48;;;2.90;92.80;;;;;;5096580;28;20085;-73
2020/12/29 06:25:32;;;;;;;34.50;20.80;;;2.90;92.90;;;;;;5089649;28;20033;-76
2020/12/29 06:28:00;;;;;;;33.28;18.98;;;2.80;92.90;;;;;;5097839;28;20055;-76
2020/12/29 06:30:26;;;;;;;31.02;18.58;;;2.80;93.00;;;;;;5093151;28;20044;-78
2020/12/29 06:32:54;;;;;;;32.53;19.27;;;2.80;93.00;;;;;;5094537;28;20038;-75
2020/12/29 06:35:21;;;;;;;30.67;18.60;;;2.80;93.10;;;;;;5098089;28;20466;-74
2020/12/29 06:37:51;;;;;;;32.08;17.90;;;2.90;93.10;;;;;;5094367;28;20398;-74
2020/12/29 06:40:20;;;;;;;28.83;16.65;;;3.00;93.10;;;;;;5100723;28;20024;-77
2020/12/29 06:42:46;;;;;;;25.55;15.45;;;3.10;92.90;;;;;;5094224;28;20493;-74
2020/12/29 06:45:12;;;;;;;30.70;17.13;;;3.10;92.80;;;;;;5090501;28;20474;-74
2020/12/29 06:47:44;;;;;;;27.23;16.52;;;3.10;92.80;;;;;;5090802;28;20024;-76
2020/12/29 06:50:30;;;;;;;28.58;15.93;;;3.10;92.70;;;;;;5088094;28;20032;-73
2020/12/29 06:53:03;;;;;;;26.67;15.43;;;3.10;92.70;;;;;;5077493;28;20124;-73
2020/12/29 06:55:49;;;;;;;32.03;15.65;;;3.10;92.60;;;;;;5079368;28;20402;-73
2020/12/29 06:58:34;;;;;;;33.45;17.58;;;3.10;92.60;;;;;;5092299;28;20039;-75
2020/12/29 07:01:22;;;;;;;28.88;16.67;;;3.10;92.70;;;;;;5074651;28;20036;-74
2020/12/29 07:04:06;;;;;;;30.80;16.55;;;3.20;92.70;;;;;;5094306;28;20101;-74
2020/12/29 07:06:36;;;;;;;29.63;17.58;;;3.20;92.70;;;;;;5090975;28;20493;-74
2020/12/29 07:09:07;;;;;;;31.20;17.98;;;3.20;92.50;;;;;;5091056;28;20044;-74
2020/12/29 07:11:34;;;;;;;37.58;18.60;;;3.20;92.40;;;;;;5092516;28;20364;-73
2020/12/29 07:14:04;;;;;;;33.55;18.60;;;3.20;92.40;;;;;;5096583;28;20040;-73
2020/12/29 07:16:30;;;;;;;32.60;18.08;;;3.20;92.50;;;;;;5091927;28;20032;-74
2020/12/29 07:19:13;;;;;;;35.60;20.50;;;3.30;92.60;;;;;;5072861;28;20024;-74
2020/12/29 07:21:39;;;;;;;32.22;19.65;;;3.30;92.50;;;;;;5092843;28;20040;-78
2020/12/29 07:24:06;;;;;;;34.70;21.45;;;3.40;92.50;;;;;;5086777;28;20036;-73
2020/12/29 07:26:40;;;;;;;36.25;20.85;;;3.40;92.50;;;;;;5094331;28;20028;-74
2020/12/29 07:29:07;;;;;;;37.63;21.92;;;3.40;92.40;;;;;;5089243;28;20039;-74
2020/12/29 07:31:42;;;;;;;33.78;20.52;;;3.40;92.30;;;;;;5075773;28;20036;-76
2020/12/29 07:34:14;;;;;;;37.75;22.60;;;3.40;92.30;;;;;;5071141;28;20386;-74
2020/12/29 07:36:47;;;;;;;34.70;22.25;;;3.40;92.30;;;;;;5097251;28;20032;-74
2020/12/29 07:39:14;;;;;;;38.63;21.88;;;3.40;92.30;;;;;;5083369;28;20040;-74
2020/12/29 07:41:40;;;;;;;40.45;22.63;;;3.40;92.30;;;;;;5096900;28;20417;-74
2020/12/29 07:44:06;;;;;;;37.78;22.23;;;3.40;92.20;;;;;;5100693;28;20028;-75
2020/12/29 07:46:32;;;;;;;36.83;21.95;;;3.30;92.20;;;;;;5095525;28;20031;-75
2020/12/29 07:48:59;;;;;;;36.20;21.90;;;3.30;92.20;;;;;;5096730;28;20068;-73
2020/12/29 07:51:26;;;;;;;34.05;21.00;;;3.30;92.20;;;;;;5079320;28;20982;-73
2020/12/29 07:53:51;;;;;;;36.63;21.73;;;3.30;92.00;;;;;;5081981;28;20050;-73
2020/12/29 07:56:18;;;;;;;34.90;22.35;;;3.30;91.90;;;;;;5098117;28;20494;-74
2020/12/29 07:58:43;;;;;;;35.72;21.55;;;3.30;91.90;;;;;;5095404;28;20042;-74
2020/12/29 08:01:09;;;;;;;35.55;22.45;;;3.30;91.80;;;;;;5090528;28;20036;-74
2020/12/29 08:03:35;;;;;;;34.00;21.02;;;3.30;91.90;;;;;;5090852;28;20114;-75
2020/12/29 08:06:00;;;;;;;31.50;21.05;;;3.30;91.70;;;;;;5093481;28;20404;-75
2020/12/29 08:08:26;;;;;;;36.83;20.10;;;3.20;91.70;;;;;;5095993;28;20060;-75
2020/12/29 08:10:51;;;;;;;33.40;20.33;;;3.20;91.80;;;;;;5089982;28;20032;-76
2020/12/29 08:13:20;;;;;;;34.25;20.85;;;3.30;91.80;;;;;;5096342;28;20080;-75
2020/12/29 08:15:48;;;;;;;34.50;20.77;;;3.40;91.70;;;;;;5089520;28;20028;-76
2020/12/29 08:18:17;;;;;;;37.47;22.08;;;3.40;91.50;;;;;;5071563;28;20446;-74
2020/12/29 08:21:03;;;;;;;33.97;20.83;;;3.40;91.50;;;;;;5091201;28;20470;-73
2020/12/29 08:23:29;;;;;;;35.00;20.52;;;3.40;91.40;;;;;;5098023;28;20040;-74
2020/12/29 08:26:02;;;;;;;34.95;20.10;;;3.40;91.30;;;;;;5095093;28;20377;-74
2020/12/29 08:28:30;;;;;;;37.60;20.85;;;3.40;91.20;;;;;;5090880;28;20089;-73
2020/12/29 08:31:05;;;;;;;32.63;19.67;;;3.50;91.20;;;;;;5091028;28;20388;-74
2020/12/29 08:33:31;;;;;;;33.17;21.00;;;3.50;91.10;;;;;;5089862;28;20052;-74
2020/12/29 08:36:01;;;;;;;33.08;19.88;;;3.50;91.10;;;;;;5075406;28;20027;-75
2020/12/29 08:38:28;;;;;;;33.03;19.55;;;3.50;91.20;;;;;;5097464;28;20035;-74
2020/12/29 08:41:06;;;;;;;32.85;19.38;;;3.50;91.20;;;;;;5081808;28;20028;-74
2020/12/29 08:43:43;;;;;;;29.95;18.20;;;3.50;91.20;;;;;;5099573;28;20043;-78
2020/12/29 08:46:09;;;;;;;32.42;19.67;;;3.50;91.10;;;;;;5095787;28;20028;-73
2020/12/29 08:48:35;;;;;;;31.33;19.63;;;3.50;91.10;;;;;;5097281;28;20044;-74
2020/12/29 08:51:19;;;;;;;32.58;20.40;;;3.50;91.20;;;;;;5095968;28;20031;-75
2020/12/29 08:53:45;;;;;;;31.52;18.98;;;3.60;91.20;;;;;;5077135;28;20158;-74
2020/12/29 08:56:24;;;;;;;34.35;19.85;;;3.60;91.10;;;;;;5096648;28;20028;-74
2020/12/29 08:58:49;;;;;;;33.88;19.33;;;3.60;90.90;;;;;;5093469;28;20048;-74
2020/12/29 09:01:41;;;;;;;34.20;20.20;;;3.60;90.90;;;;;;5094027;28;20028;-74
2020/12/29 09:04:26;;;;;;;32.88;19.30;;;3.70;90.90;;;;;;5098385;28;20036;-75
2020/12/29 09:06:59;;;;;;;;;;;3.60;90.90;;;;;;5092883;28;20465;-74
2020/12/29 09:09:26;;;;;;;30.55;18.25;;;3.60;90.90;;;;;;5093355;28;19920;-74
2020/12/29 09:12:15;;;;;;;31.48;19.58;;;3.60;90.90;;;;;;5098464;28;20038;-74
2020/12/29 09:14:58;;;;;;;30.58;19.58;;;3.60;90.90;;;;;;5098367;28;20036;-78
2020/12/29 09:17:26;;;;;;;33.25;20.33;;;3.70;90.80;;;;;;5096478;28;20036;-76
2020/12/29 09:20:28;;;;;;;32.67;21.42;;;3.70;90.80;;;;;;5095050;28;20043;-75
2020/12/29 09:23:00;;;;;;;31.40;20.48;;;3.70;90.80;;;;;;5095430;28;20047;-78
2020/12/29 09:25:27;;;;;;;35.60;20.77;;;3.80;90.80;;;;;;5079691;28;20058;-75
2020/12/29 09:28:25;;;;;;;34.08;21.15;;;3.80;90.60;;;;;;5098534;28;20024;-75
2020/12/29 09:31:00;;;;;;;31.20;19.75;;;3.90;90.70;;;;;;5095856;28;20077;-74
2020/12/29 09:33:27;;;;;;;37.85;20.80;;;3.90;90.60;;;;;;5094544;28;20040;-75
2020/12/29 09:35:53;;;;;;;33.25;21.00;;;3.90;90.50;;;;;;5076406;28;20421;-75
2020/12/29 09:38:19;;;;;;;28.90;19.67;;;4.00;90.40;;;;;;5096348;28;20042;-74
2020/12/29 09:40:49;;;;;;;30.50;19.75;;;4.00;90.10;;;;;;5091091;28;20118;-75
2020/12/29 09:43:14;;;;;;;31.30;18.88;;;4.10;89.90;;;;;;5077777;28;20028;-74
2020/12/29 09:45:44;;;;;;;30.73;18.98;;;4.10;89.80;;;;;;5076617;28;20363;-74
2020/12/29 09:48:11;;;;;;;31.42;19.17;;;4.30;89.50;;;;;;5093625;28;20032;-74
2020/12/29 09:50:36;;;;;;;28.90;19.35;;;4.20;89.20;;;;;;5099196;28;20466;-75
2020/12/29 09:53:02;;;;;;;32.15;19.48;;;4.30;88.90;;;;;;5091542;28;20056;-75
2020/12/29 09:55:27;;;;;;;29.33;17.98;;;4.40;88.80;;;;;;5094515;28;20050;-76
2020/12/29 09:57:53;;;;;;;28.90;19.30;;;4.40;88.60;;;;;;5092892;28;20039;-75
2020/12/29 10:00:18;;;;;;;30.27;18.40;;;4.40;88.30;;;;;;5081375;28;20031;-74
2020/12/29 10:02:44;;;;;;;30.20;19.23;;;4.40;88.10;;;;;;5092517;28;20024;-74
2020/12/29 10:05:10;;;;;;;29.05;18.95;;;4.40;88.20;;;;;;5093210;28;20521;-75
2020/12/29 10:07:35;;;;;;;28.40;17.52;;;4.30;88.00;;;;;;5074195;28;20039;-76
2020/12/29 10:10:01;;;;;;;32.05;20.17;;;4.40;87.90;;;;;;5088993;28;20032;-74
2020/12/29 10:12:27;;;;;;;35.40;19.25;;;4.30;87.70;;;;;;5092566;28;20040;-75
2020/12/29 10:14:52;;;;;;;27.88;17.98;;;4.40;87.80;;;;;;5094434;28;20042;-74
2020/12/29 10:17:18;;;;;;;30.15;19.23;;;4.40;87.70;;;;;;5090829;28;20374;-73
2020/12/29 10:19:44;;;;;;;30.40;18.15;;;4.40;87.50;;;;;;5092015;28;20063;-74
2020/12/29 10:22:10;;;;;;;34.58;20.30;;;4.40;87.30;;;;;;5089945;28;20174;-73
2020/12/29 10:24:35;;;;;;;31.35;19.23;;;4.50;87.20;;;;;;5081846;28;20130;-79
2020/12/29 10:27:01;;;;;;;30.45;19.25;;;4.50;87.20;;;;;;5089924;28;20478;-75
2020/12/29 10:29:26;;;;;;;30.23;19.73;;;4.50;86.80;;;;;;5094838;28;20036;-74
2020/12/29 10:31:52;;;;;;;32.40;19.88;;;4.60;87.20;;;;;;5094660;28;20044;-74
2020/12/29 10:34:18;;;;;;;31.85;20.27;;;4.60;87.00;;;;;;5099102;28;20458;-74
2020/12/29 10:36:45;;;;;;;30.27;19.70;;;4.60;86.90;;;;;;5094274;28;20046;-78
2020/12/29 10:39:11;;;;;;;31.80;19.15;;;4.80;86.90;;;;;;5091366;28;20040;-73
2020/12/29 10:41:39;;;;;;;31.20;19.67;;;4.90;86.40;;;;;;5076873;28;20039;-77
2020/12/29 10:44:06;;;;;;;30.67;20.25;;;5.00;86.00;;;;;;5074228;28;20081;-75
2020/12/29 10:46:32;;;;;;;30.83;19.73;;;5.10;86.30;;;;;;5082478;28;20047;-74
2020/12/29 10:48:58;;;;;;;29.65;19.45;;;5.10;85.90;;;;;;5090370;28;20020;-75
2020/12/29 10:51:25;;;;;;;28.85;19.17;;;5.20;85.50;;;;;;5098864;28;20027;-75
2020/12/29 10:53:52;;;;;;;34.25;22.20;;;5.30;84.90;;;;;;5094869;28;20047;-77
2020/12/29 10:56:18;;;;;;;30.90;20.95;;;5.30;84.80;;;;;;5080858;28;20046;-76
2020/12/29 10:58:44;;;;;;;33.17;21.45;;;5.40;84.60;;;;;;5093755;28;20044;-74
2020/12/29 11:01:18;;;;;;;29.80;18.42;;;5.40;84.70;;;;;;5090111;28;20432;-75
2020/12/29 11:03:44;;;;;;;27.90;18.65;;;5.50;84.30;;;;;;5083225;28;20028;-74
2020/12/29 11:06:20;;;;;;;29.80;19.70;;;5.50;84.20;;;;;;5090782;28;20029;-74
2020/12/29 11:08:47;;;;;;;29.70;19.23;;;5.60;84.40;;;;;;5093575;28;20028;-76
2020/12/29 11:11:13;;;;;;;33.38;22.88;;;5.60;84.20;;;;;;5074630;28;20036;-74
2020/12/29 11:13:39;;;;;;;29.50;20.17;;;5.60;84.30;;;;;;5090828;28;20031;-78
2020/12/29 11:16:05;;;;;;;32.47;19.88;;;5.50;84.00;;;;;;5097740;28;20035;-77
2020/12/29 11:18:30;;;;;;;31.45;20.08;;;5.40;84.30;;;;;;5075720;28;20036;-74
2020/12/29 11:20:56;;;;;;;26.75;18.63;;;5.30;84.40;;;;;;5092655;28;20530;-74
2020/12/29 11:23:22;;;;;;;31.65;21.65;;;5.10;85.20;;;;;;5074872;28;20031;-74
2020/12/29 11:25:48;;;;;;;35.50;23.80;;;5.10;85.40;;;;;;5099691;28;20099;-74
2020/12/29 11:28:14;;;;;;;33.28;24.00;;;5.10;85.60;;;;;;5076212;28;20408;-75
2020/12/29 11:30:40;;;;;;;32.55;22.75;;;5.10;85.50;;;;;;5095431;28;20077;-75
2020/12/29 11:33:07;;;;;;;33.28;21.77;;;5.00;85.80;;;;;;5094199;28;20063;-75
2020/12/29 11:35:33;;;;;;;39.97;24.10;;;5.00;85.90;;;;;;5095707;28;20044;-78
2020/12/29 11:37:58;;;;;;;33.38;22.95;;;5.10;86.00;;;;;;5097626;28;20044;-74
2020/12/29 11:40:24;;;;;;;36.40;23.85;;;5.10;86.00;;;;;;5079015;28;20043;-75
2020/12/29 11:42:49;;;;;;;35.13;23.13;;;5.10;86.10;;;;;;5094178;28;20073;-74
2020/12/29 11:45:15;;;;;;;37.10;23.77;;;5.20;86.20;;;;;;5074659;28;20023;-74
2020/12/29 11:47:41;;;;;;;33.65;22.67;;;5.20;86.10;;;;;;5096907;28;20517;-74
2020/12/29 11:50:07;;;;;;;33.75;23.00;;;5.30;86.10;;;;;;5090937;28;20037;-79
2020/12/29 11:52:33;;;;;;;31.33;22.10;;;5.40;86.00;;;;;;5079594;28;20093;-74
2020/12/29 11:54:58;;;;;;;31.08;22.70;;;5.40;86.00;;;;;;5095899;28;20032;-74
2020/12/29 11:57:24;;;;;;;36.63;24.02;;;5.50;86.00;;;;;;5091349;28;20028;-75
2020/12/29 11:59:49;;;;;;;36.30;23.73;;;5.50;85.70;;;;;;5089328;28;20032;-78
2020/12/29 12:02:15;;;;;;;34.45;22.23;;;5.50;85.70;;;;;;5093874;28;20102;-76
2020/12/29 12:04:41;;;;;;;33.15;22.85;;;5.50;85.80;;;;;;5090622;28;20028;-75
2020/12/29 12:07:10;;;;;;;34.85;22.48;;;5.50;86.00;;;;;;5091181;28;20024;-77
2020/12/29 12:09:39;;;;;;;35.53;24.10;;;5.60;85.90;;;;;;5094607;28;20082;-76
2020/12/29 12:12:06;;;;;;;37.88;24.50;;;5.50;86.30;;;;;;5084722;28;20044;-76
2020/12/29 12:14:32;;;;;;;34.70;22.88;;;5.50;86.00;;;;;;5077876;28;20093;-76
2020/12/29 12:16:58;;;;;;;37.33;24.08;;;5.60;85.90;;;;;;5092257;28;20055;-77
2020/12/29 12:19:24;;;;;;;32.88;21.48;;;5.60;86.10;;;;;;5093591;28;20473;-76
2020/12/29 12:21:50;;;;;;;32.88;21.83;;;5.70;86.00;;;;;;5098633;28;20023;-75
2020/12/29 12:24:16;;;;;;;32.35;22.50;;;5.60;85.90;;;;;;5095863;28;20032;-76
2020/12/29 12:26:41;;;;;;;31.58;21.02;;;5.60;86.00;;;;;;5092376;28;20549;-74
2020/12/29 12:29:07;;;;;;;30.45;19.38;;;5.60;85.60;;;;;;5102317;28;20111;-76
2020/12/29 12:31:32;;;;;;;27.90;19.35;;;5.60;85.60;;;;;;5098285;28;20044;-73
2020/12/29 12:33:58;;;;;;;31.08;20.38;;;5.60;85.70;;;;;;5098779;28;20036;-74
2020/12/29 12:36:24;;;;;;;35.20;25.92;;;5.60;85.80;;;;;;5097573;28;20023;-75
2020/12/29 12:38:49;;;;;;;47.97;33.53;;;5.60;86.00;;;;;;5094762;28;20127;-74
2020/12/29 12:41:15;;;;;;;43.35;29.33;;;5.50;85.80;;;;;;5074538;28;20398;-76